Time;durP1;ratioP1;P1;durP2;ratioP2;P2;SDS_P1;SDS_P2;PMS_P1;PMS_P2;Temp;Humidity;BMP_temperature;BMP_pressure;BME280_temperature;BME280_humidity;BME280_pressure;Samples;Min_cycle;Max_cycle;Signal;HPM_P1;HPM_P2
2022/09/14 00:01:34;;;;;;;2.85;2.65;;;;;;;16.47;70.60;98112.53;5054787;28;20618;-51
2022/09/14 00:04:03;;;;;;;3.22;3.00;;;;;;;16.34;71.27;98101.59;5054786;28;20177;-51
2022/09/14 00:06:29;;;;;;;2.50;2.30;;;;;;;16.36;71.59;98110.94;5054720;28;20213;-51
2022/09/14 00:08:59;;;;;;;3.78;2.38;;;;;;;16.36;71.36;98104.88;5054584;28;20244;-51
2022/09/14 00:11:26;;;;;;;2.60;2.40;;;;;;;16.28;71.75;98095.16;5054651;28;20174;-51
2022/09/14 00:13:52;;;;;;;3.58;2.60;;;;;;;16.22;72.17;98102.78;5054567;28;20173;-51
2022/09/14 00:16:21;;;;;;;2.50;2.40;;;;;;;16.20;72.19;98095.09;5054650;28;20173;-51
2022/09/14 00:18:51;;;;;;;2.80;2.53;;;;;;;16.16;72.42;98098.97;5055083;28;20657;-51
2022/09/14 00:21:17;;;;;;;4.75;2.78;;;;;;;16.11;72.69;98095.16;5054745;28;20176;-51
2022/09/14 00:23:42;;;;;;;2.85;2.70;;;;;;;16.13;72.11;98093.22;5054690;28;20597;-51
2022/09/14 00:26:12;;;;;;;3.08;2.88;;;;;;;16.16;72.23;98112.00;5054861;28;20212;-52
2022/09/14 00:28:46;;;;;;;3.45;3.13;;;;;;;16.16;72.31;98105.97;5054279;28;20214;-51
2022/09/14 00:31:13;;;;;;;2.80;2.60;;;;;;;16.16;72.25;98098.97;5054540;28;20170;-52
2022/09/14 00:33:40;;;;;;;2.83;2.65;;;;;;;16.12;71.38;98108.06;5054196;28;20824;-52
2022/09/14 00:36:13;;;;;;;2.90;2.78;;;;;;;16.18;71.94;98112.72;5054195;28;20227;-51
2022/09/14 00:38:39;;;;;;;2.90;2.70;;;;;;;16.11;72.04;98103.00;5054315;28;20150;-51
2022/09/14 00:41:07;;;;;;;2.78;2.67;;;;;;;16.01;72.42;98108.28;5054094;28;20714;-51
2022/09/14 00:44:00;;;;;;;2.95;2.80;;;;;;;16.04;72.45;98115.78;5054281;28;20203;-51
2022/09/14 00:46:29;;;;;;;4.43;2.50;;;;;;;16.11;71.81;98100.38;5054293;28;20635;-51
2022/09/14 00:48:58;;;;;;;3.38;2.58;;;;;;;16.08;72.28;98117.16;5053876;28;20197;-51
2022/09/14 00:51:24;;;;;;;2.75;2.55;;;;;;;16.03;72.84;98121.19;5054506;28;20170;-52
2022/09/14 00:53:50;;;;;;;3.00;2.80;;;;;;;16.17;71.44;98108.47;5054378;28;20207;-51
2022/09/14 00:56:16;;;;;;;2.63;2.42;;;;;;;16.14;71.50;98115.72;5054297;28;20219;-51
2022/09/14 00:58:44;;;;;;;2.60;2.40;;;;;;;15.91;71.34;98073.56;5053763;28;20190;-52
2022/09/14 01:01:10;;;;;;;2.60;2.50;;;;;;;16.19;71.62;98118.72;5052701;28;20231;-52
2022/09/14 01:03:36;;;;;;;2.65;2.45;;;;;;;16.02;71.57;98098.63;5053672;28;20205;-52
2022/09/14 01:06:13;;;;;;;3.10;2.80;;;;;;;16.18;71.62;98115.31;5054045;28;20232;-51
2022/09/14 01:08:56;;;;;;;2.53;2.42;;;;;;;16.17;71.78;98125.91;5053497;28;20240;-52
2022/09/14 01:11:47;;;;;;;2.35;2.25;;;;;;;16.24;71.01;98121.72;5053550;28;20170;-51
2022/09/14 01:14:25;;;;;;;3.50;2.78;;;;;;;16.07;70.68;98104.25;5052685;28;20189;-52
2022/09/14 01:17:14;;;;;;;2.40;2.30;;;;;;;16.15;71.00;98117.41;5053706;28;20176;-52
2022/09/14 01:20:07;;;;;;;2.60;2.50;;;;;;;16.21;70.20;98116.81;5052841;28;20670;-52
2022/09/14 01:22:39;;;;;;;2.67;2.58;;;;;;;16.29;70.44;98109.06;5053762;28;20166;-52
2022/09/14 01:25:27;;;;;;;2.53;2.42;;;;;;;16.35;69.99;98109.28;5053298;28;20216;-51
2022/09/14 01:27:57;;;;;;;6.20;2.65;;;;;;;16.32;70.06;98117.41;5052528;28;20165;-52
2022/09/14 01:30:23;;;;;;;2.40;2.17;;;;;;;16.10;70.60;98104.75;5053107;28;20201;-52
2022/09/14 01:33:11;;;;;;;2.60;2.50;;;;;;;15.87;71.09;98074.03;5053406;28;20646;-51
2022/09/14 01:35:43;;;;;;;4.22;2.63;;;;;;;16.04;71.44;98120.22;5052510;28;20199;-52
2022/09/14 01:38:18;;;;;;;2.40;2.30;;;;;;;16.00;71.08;98108.41;5053305;28;20200;-51
2022/09/14 01:40:48;;;;;;;3.33;3.03;;;;;;;16.12;69.84;98117.69;5053128;28;20236;-52
2022/09/14 01:43:19;;;;;;;3.67;2.65;;;;;;;15.95;70.74;98113.25;5051649;28;20177;-51
2022/09/14 01:45:51;;;;;;;2.53;2.33;;;;;;;15.85;71.29;98115.09;5052958;28;20654;-51
2022/09/14 01:48:23;;;;;;;2.70;2.22;;;;;;;15.82;71.37;98113.59;5052916;28;20165;-51
2022/09/14 01:50:53;;;;;;;2.83;2.72;;;;;;;15.79;72.06;98110.44;5053003;28;20162;-51
2022/09/14 01:53:29;;;;;;;3.75;2.67;;;;;;;15.75;72.56;98119.53;5052630;28;20185;-51
2022/09/14 01:56:02;;;;;;;2.53;2.33;;;;;;;15.77;72.08;98115.81;5052672;28;20164;-52
2022/09/14 01:58:36;;;;;;;2.50;2.38;;;;;;;15.81;71.00;98121.56;5052612;28;20181;-52
2022/09/14 02:01:05;;;;;;;4.60;2.58;;;;;;;15.96;69.56;98122.69;5052857;28;20172;-52
2022/09/14 02:03:37;;;;;;;4.05;2.63;;;;;;;16.04;68.90;98112.38;5052497;28;20209;-52
2022/09/14 02:06:11;;;;;;;1.88;1.77;;;;;;;16.30;65.92;98121.13;5052868;28;20188;-51
2022/09/14 02:08:37;;;;;;;2.50;2.30;;;;;;;16.22;68.56;98114.03;5051388;28;20282;-52
2022/09/14 02:11:02;;;;;;;3.88;2.45;;;;;;;16.15;69.34;98120.00;5052443;28;20169;-52
2022/09/14 02:13:29;;;;;;;2.90;2.67;;;;;;;16.07;70.26;98120.72;5052393;28;20173;-52
2022/09/14 02:15:54;;;;;;;2.75;2.55;;;;;;;16.02;70.64;98125.56;5052334;28;20561;-52
2022/09/14 02:18:20;;;;;;;2.40;2.30;;;;;;;15.88;71.20;98130.44;5052308;28;20178;-52
2022/09/14 02:20:52;;;;;;;3.17;2.17;;;;;;;15.77;71.35;98108.00;5052331;28;20197;-52
2022/09/14 02:23:18;;;;;;;2.45;2.35;;;;;;;15.81;71.41;98118.94;5052655;28;20628;-51
2022/09/14 02:25:45;;;;;;;3.08;2.67;;;;;;;15.57;72.60;98108.22;5052180;28;20180;-52
2022/09/14 02:28:10;;;;;;;3.35;3.03;;;;;;;15.47;73.26;98125.66;5052116;28;20187;-52
2022/09/14 02:30:47;;;;;;;3.03;2.83;;;;;;;15.43;73.57;98119.91;5052046;28;20197;-52
2022/09/14 02:33:24;;;;;;;2.50;2.40;;;;;;;15.41;73.69;98121.03;5052308;28;20161;-52
2022/09/14 02:35:53;;;;;;;2.92;2.70;;;;;;;15.38;73.70;98127.34;5052579;28;20154;-52
2022/09/14 02:38:23;;;;;;;3.45;2.45;;;;;;;15.39;73.69;98117.75;5051968;28;20173;-52
2022/09/14 02:41:10;;;;;;;2.58;2.42;;;;;;;15.46;73.14;98122.22;5050707;28;20622;-52
2022/09/14 02:43:39;;;;;;;3.88;2.65;;;;;;;15.43;73.36;98113.88;5051974;28;20176;-52
2022/09/14 02:46:46;;;;;;;2.58;2.33;;;;;;;15.53;72.71;98117.28;5051865;28;20192;-52
2022/09/14 02:49:31;;;;;;;2.83;2.60;;;;;;;15.60;71.92;98119.19;5051825;28;20247;-52
2022/09/14 02:52:14;;;;;;;2.50;2.30;;;;;;;15.63;71.53;98120.69;5052011;28;20179;-52
2022/09/14 02:54:59;;;;;;;5.15;2.50;;;;;;;15.56;72.24;98135.25;5052130;28;20208;-52
2022/09/14 02:57:24;;;;;;;2.47;2.25;;;;;;;15.52;73.23;98134.69;5052075;28;20158;-52
2022/09/14 02:59:53;;;;;;;3.10;2.33;;;;;;;15.46;72.64;98129.25;5051842;28;20552;-52
2022/09/14 03:02:18;;;;;;;3.45;2.30;;;;;;;15.27;72.95;98092.78;5051759;28;20174;-52
2022/09/14 03:04:44;;;;;;;2.90;2.70;;;;;;;15.32;72.87;98120.09;5051616;28;20232;-51
2022/09/14 03:07:09;;;;;;;2.60;2.40;;;;;;;15.41;73.05;98126.25;5051720;28;20666;-51
2022/09/14 03:09:34;;;;;;;2.40;2.30;;;;;;;15.45;72.78;98128.41;5050389;28;20204;-52
2022/09/14 03:12:01;;;;;;;2.72;2.58;;;;;;;15.39;73.04;98117.75;5051745;28;20181;-52
2022/09/14 03:14:26;;;;;;;2.53;2.40;;;;;;;15.48;72.52;98122.09;5051621;28;20331;-52
2022/09/14 03:16:51;;;;;;;4.68;2.50;;;;;;;15.49;72.63;98128.94;5051758;28;20253;-52
2022/09/14 03:19:17;;;;;;;4.03;2.33;;;;;;;15.35;72.55;98113.78;5051704;28;20237;-52
2022/09/14 03:21:42;;;;;;;3.42;2.55;;;;;;;15.36;73.09;98123.22;5051837;28;20249;-52
2022/09/14 03:24:07;;;;;;;2.78;2.28;;;;;;;15.32;73.50;98121.81;5051597;28;20550;-51
2022/09/14 03:26:35;;;;;;;2.70;2.50;;;;;;;15.17;73.76;98107.63;5051541;28;20173;-51
2022/09/14 03:29:02;;;;;;;2.40;2.20;;;;;;;15.17;73.74;98123.25;5051437;28;20198;-52
2022/09/14 03:31:28;;;;;;;3.60;2.40;;;;;;;15.20;73.39;98122.94;5051705;28;20189;-52
2022/09/14 03:33:55;;;;;;;2.53;2.42;;;;;;;15.25;73.35;98120.75;5051664;28;20174;-52
2022/09/14 03:36:21;;;;;;;2.40;2.20;;;;;;;15.35;72.48;98119.81;5051413;28;20248;-52
2022/09/14 03:38:49;;;;;;;2.35;2.22;;;;;;;15.40;72.21;98120.19;5051366;28;20259;-52
2022/09/14 03:41:15;;;;;;;2.70;2.20;;;;;;;15.29;73.39;98124.72;5051412;28;20694;-52
2022/09/14 03:43:41;;;;;;;2.55;2.45;;;;;;;15.36;73.09;98112.81;5051645;28;20182;-52
2022/09/14 03:46:09;;;;;;;2.33;2.20;;;;;;;15.37;72.53;98120.47;5051366;28;20178;-52
2022/09/14 03:48:35;;;;;;;3.53;2.97;;;;;;;15.41;72.33;98118.41;5051529;28;20235;-52
2022/09/14 03:51:02;;;;;;;3.70;2.70;;;;;;;15.49;72.34;98116.75;5052805;28;20185;-52
2022/09/14 03:53:27;;;;;;;2.70;2.50;;;;;;;15.49;72.12;98119.34;5055551;28;20189;-53
2022/09/14 03:55:53;;;;;;;2.47;2.30;;;;;;;15.41;71.82;98103.59;5055499;28;20561;-53
2022/09/14 03:58:18;;;;;;;2.30;2.10;;;;;;;15.44;72.26;98115.50;5053676;28;20177;-53
2022/09/14 04:00:44;;;;;;;2.55;2.42;;;;;;;15.36;72.28;98124.06;5054898;28;20558;-52
2022/09/14 04:03:10;;;;;;;4.05;2.30;;;;;;;15.28;72.61;98115.28;5054812;28;20178;-52
2022/09/14 04:05:35;;;;;;;2.10;2.00;;;;;;;15.26;72.42;98119.78;5054601;28;20263;-52
2022/09/14 04:08:01;;;;;;;5.15;2.60;;;;;;;15.26;72.16;98127.59;5054703;28;20225;-52
2022/09/14 04:10:26;;;;;;;2.85;2.65;;;;;;;15.23;72.51;98131.31;5054683;28;20213;-53
2022/09/14 04:12:52;;;;;;;2.85;2.58;;;;;;;14.97;73.02;98087.75;5054946;28;20252;-52
2022/09/14 04:15:18;;;;;;;2.45;2.33;;;;;;;15.27;72.78;98139.69;5054553;28;20536;-52
2022/09/14 04:17:43;;;;;;;2.60;2.40;;;;;;;15.27;72.55;98134.50;5054614;28;20228;-52
2022/09/14 04:20:09;;;;;;;2.97;2.22;;;;;;;15.17;72.73;98125.84;5053260;28;20170;-52
2022/09/14 04:22:34;;;;;;;2.40;2.30;;;;;;;15.22;72.96;98131.47;5054489;28;20575;-52
2022/09/14 04:24:59;;;;;;;2.65;2.45;;;;;;;15.32;73.07;98137.47;5054689;28;20186;-52
2022/09/14 04:27:25;;;;;;;2.85;2.58;;;;;;;15.35;72.29;98127.63;5054451;28;20169;-52
2022/09/14 04:29:50;;;;;;;3.47;2.47;;;;;;;15.38;72.54;98137.78;5054500;28;20679;-52
2022/09/14 04:32:16;;;;;;;2.60;2.40;;;;;;;15.32;72.49;98121.81;5054583;28;20260;-52
2022/09/14 04:34:41;;;;;;;2.75;2.55;;;;;;;15.38;71.73;98123.91;5054219;28;20655;-52
2022/09/14 04:37:07;;;;;;;3.35;2.40;;;;;;;15.14;71.81;98097.44;5054314;28;20185;-52
2022/09/14 04:39:32;;;;;;;3.72;2.20;;;;;;;15.35;72.05;98147.66;5054330;28;20178;-52
2022/09/14 04:41:57;;;;;;;2.60;2.40;;;;;;;15.28;72.38;98125.69;5054125;28;20177;-52
2022/09/14 04:44:23;;;;;;;2.35;2.25;;;;;;;15.14;72.75;98126.13;5054051;28;20180;-51
2022/09/14 04:46:48;;;;;;;2.50;2.40;;;;;;;15.14;72.84;98123.50;5053966;28;20178;-52
2022/09/14 04:49:15;;;;;;;2.85;2.63;;;;;;;14.87;73.41;98098.19;5054114;28;20206;-52
2022/09/14 04:51:41;;;;;;;2.45;2.30;;;;;;;15.17;73.36;98123.25;5054385;28;20219;-53
2022/09/14 04:54:06;;;;;;;2.67;2.58;;;;;;;15.19;73.29;98126.53;5053920;28;20255;-52
2022/09/14 04:56:34;;;;;;;2.47;2.30;;;;;;;15.22;72.67;98121.06;5053753;28;20621;-52
2022/09/14 04:59:03;;;;;;;2.58;2.38;;;;;;;15.30;72.40;98118.53;5054042;28;20304;-52
2022/09/14 05:01:31;;;;;;;3.00;2.80;;;;;;;15.24;72.96;98103.47;5053727;28;20284;-52
2022/09/14 05:03:57;;;;;;;2.80;2.60;;;;;;;15.37;72.98;98122.25;5053071;28;20177;-52
2022/09/14 05:06:25;;;;;;;2.50;2.40;;;;;;;15.44;72.69;98118.94;5053454;28;20193;-52
2022/09/14 05:08:52;;;;;;;2.53;2.42;;;;;;;15.59;71.71;98114.09;5053794;28;20302;-52
2022/09/14 05:11:20;;;;;;;2.20;2.10;;;;;;;15.65;71.55;98116.13;5053899;28;20185;-52
2022/09/14 05:13:46;;;;;;;2.30;2.20;;;;;;;15.74;71.13;98118.69;5053801;28;20177;-52
2022/09/14 05:16:20;;;;;;;3.38;2.30;;;;;;;15.83;71.28;98133.50;5053441;28;20174;-52
2022/09/14 05:18:46;;;;;;;2.45;2.25;;;;;;;15.95;70.66;98116.69;5053752;28;20185;-52
2022/09/14 05:21:15;;;;;;;2.60;2.50;;;;;;;16.08;69.89;98135.41;5053310;28;20180;-52
2022/09/14 05:23:40;;;;;;;2.42;2.22;;;;;;;16.16;70.09;98121.66;5053600;28;20177;-53
2022/09/14 05:26:06;;;;;;;2.25;2.10;;;;;;;16.36;69.69;98131.00;5053511;28;20234;-53
2022/09/14 05:28:33;;;;;;;3.83;2.60;;;;;;;16.41;69.53;98137.47;5053365;28;20761;-53
2022/09/14 05:30:59;;;;;;;2.83;2.63;;;;;;;16.55;70.06;98141.34;5053456;28;20178;-52
2022/09/14 05:33:24;;;;;;;9.90;3.42;;;;;;;16.70;70.38;98155.53;5053418;28;20185;-52
2022/09/14 05:35:52;;;;;;;10.18;4.15;;;;;;;16.76;70.59;98160.16;5053099;28;20333;-53
2022/09/14 05:38:17;;;;;;;7.40;3.72;;;;;;;16.92;70.96;98160.31;5053538;28;20184;-53
2022/09/14 05:40:43;;;;;;;6.72;4.10;;;;;;;16.83;71.63;98161.19;5052958;28;20174;-52
2022/09/14 05:43:08;;;;;;;11.90;4.22;;;;;;;16.97;72.36;98160.69;5053179;28;20203;-53
2022/09/14 05:45:34;;;;;;;13.48;4.20;;;;;;;17.05;72.65;98155.50;5053262;28;20185;-53
2022/09/14 05:48:03;;;;;;;8.23;4.65;;;;;;;17.13;71.83;98152.97;5052849;28;20681;-53
2022/09/14 05:50:30;;;;;;;6.88;4.43;;;;;;;17.28;71.43;98164.50;5052880;28;20204;-53
2022/09/14 05:52:55;;;;;;;8.20;4.50;;;;;;;17.38;71.59;98176.53;5052740;28;20181;-53
2022/09/14 05:55:20;;;;;;;13.90;5.05;;;;;;;17.48;71.13;98179.91;5051426;28;20181;-53
2022/09/14 05:57:50;;;;;;;10.52;4.93;;;;;;;17.63;70.32;98183.59;5052681;28;20251;-53
2022/09/14 06:00:16;;;;;;;7.57;4.30;;;;;;;17.75;69.59;98192.84;5052633;28;20169;-53
2022/09/14 06:02:46;;;;;;;5.75;3.78;;;;;;;17.86;69.07;98197.81;5052550;28;20177;-53
2022/09/14 06:05:11;;;;;;;12.07;4.43;;;;;;;17.77;68.58;98184.84;5052555;28;20212;-53
2022/09/14 06:07:37;;;;;;;6.20;3.30;;;;;;;17.91;67.26;98192.94;5052474;28;20197;-53
2022/09/14 06:10:02;;;;;;;7.43;3.15;;;;;;;17.98;66.43;98196.56;5052574;28;20200;-53
2022/09/14 06:12:28;;;;;;;3.90;2.63;;;;;;;18.05;65.75;98194.13;5052773;28;20570;-53
2022/09/14 06:14:53;;;;;;;4.85;3.17;;;;;;;18.21;63.82;98202.06;5052165;28;20203;-53
2022/09/14 06:17:18;;;;;;;8.80;3.22;;;;;;;18.39;62.91;98202.81;5052345;28;20646;-53
2022/09/14 06:19:44;;;;;;;5.13;2.92;;;;;;;18.41;62.33;98193.00;5052329;28;20605;-53
2022/09/14 06:22:09;;;;;;;4.45;3.08;;;;;;;18.72;62.66;98201.94;5052570;28;20168;-53
2022/09/14 06:24:34;;;;;;;4.75;2.83;;;;;;;18.97;61.91;98208.84;5052512;28;20276;-53
2022/09/14 06:27:00;;;;;;;3.10;2.80;;;;;;;19.16;61.42;98208.53;5052706;28;20176;-53
2022/09/14 06:29:25;;;;;;;5.32;2.88;;;;;;;19.26;60.65;98204.81;5052074;28;20205;-53
2022/09/14 06:31:53;;;;;;;4.45;2.60;;;;;;;19.42;59.71;98202.16;5052135;28;20208;-53
2022/09/14 06:34:18;;;;;;;4.40;2.70;;;;;;;19.53;59.87;98207.06;5050837;28;20565;-52
2022/09/14 06:36:44;;;;;;;3.33;2.53;;;;;;;19.68;59.33;98207.22;5052082;28;20179;-54
2022/09/14 06:39:09;;;;;;;2.10;2.00;;;;;;;19.67;57.54;98208.22;5051987;28;20177;-54
2022/09/14 06:41:35;;;;;;;4.00;2.30;;;;;;;19.50;57.15;98202.19;5051975;28;20173;-53
2022/09/14 06:44:00;;;;;;;2.30;2.15;;;;;;;19.57;56.74;98197.91;5052463;28;20173;-53
2022/09/14 06:46:31;;;;;;;1.90;1.80;;;;;;;19.74;55.98;98203.94;5052213;28;20177;-52
2022/09/14 06:49:00;;;;;;;2.05;1.95;;;;;;;19.72;55.57;98211.16;5052110;28;20209;-52
2022/09/14 06:51:30;;;;;;;3.03;1.90;;;;;;;19.70;55.87;98202.66;5052116;28;20583;-52
2022/09/14 06:54:00;;;;;;;1.95;1.85;;;;;;;19.69;55.99;98208.91;5052201;28;20239;-52
2022/09/14 06:56:27;;;;;;;3.13;1.80;;;;;;;19.74;55.98;98210.03;5052935;28;20177;-53
2022/09/14 06:58:52;;;;;;;2.53;2.33;;;;;;;19.87;55.55;98215.56;5051841;28;20173;-53
2022/09/14 07:01:20;;;;;;;3.72;2.63;;;;;;;19.93;55.35;98207.00;5051767;28;20176;-53
2022/09/14 07:03:46;;;;;;;2.10;2.00;;;;;;;19.93;53.91;98214.88;5052008;28;20181;-52
2022/09/14 07:06:26;;;;;;;2.10;2.00;;;;;;;20.09;54.67;98220.13;5051680;28;20203;-52
2022/09/14 07:08:52;;;;;;;4.85;2.10;;;;;;;20.26;53.84;98215.63;5051730;28;20271;-53
2022/09/14 07:11:24;;;;;;;2.33;2.10;;;;;;;20.33;52.78;98221.88;5051983;28;20191;-52
2022/09/14 07:13:51;;;;;;;2.85;1.95;;;;;;;20.39;51.87;98227.25;5051735;28;20252;-52
2022/09/14 07:16:17;;;;;;;2.25;2.15;;;;;;;20.47;52.61;98213.25;5051583;28;20695;-53
2022/09/14 07:18:42;;;;;;;2.83;2.08;;;;;;;20.56;53.04;98218.31;5052137;28;20185;-52
2022/09/14 07:21:16;;;;;;;2.22;2.13;;;;;;;20.67;52.80;98222.34;5051598;28;20185;-53
2022/09/14 07:23:44;;;;;;;3.33;2.25;;;;;;;20.80;52.34;98214.75;5051912;28;20161;-53
2022/09/14 07:26:12;;;;;;;2.08;1.92;;;;;;;20.88;52.58;98206.78;5053416;28;20173;-53
2022/09/14 07:28:39;;;;;;;2.40;1.80;;;;;;;20.93;51.87;98213.19;5055498;28;20173;-53
2022/09/14 07:31:14;;;;;;;3.05;2.00;;;;;;;20.99;51.64;98207.22;5055443;28;20184;-53
2022/09/14 07:33:39;;;;;;;1.95;1.70;;;;;;;21.11;51.59;98202.38;5055853;28;20168;-53
2022/09/14 07:36:07;;;;;;;2.13;1.98;;;;;;;21.27;50.97;98197.81;5055785;28;20173;-52
2022/09/14 07:38:33;;;;;;;2.20;2.10;;;;;;;21.35;51.70;98194.31;5055426;28;20205;-53
2022/09/14 07:40:58;;;;;;;3.08;1.90;;;;;;;21.55;51.06;98198.06;5055212;28;20722;-53
2022/09/14 07:43:24;;;;;;;4.07;2.10;;;;;;;21.64;50.95;98199.63;5055227;28;20181;-53
2022/09/14 07:45:49;;;;;;;2.47;1.80;;;;;;;21.73;49.79;98199.41;5055222;28;20177;-53
2022/09/14 07:48:14;;;;;;;1.90;1.75;;;;;;;21.86;49.43;98210.13;5055213;28;20196;-52
2022/09/14 07:50:40;;;;;;;1.83;1.73;;;;;;;21.91;49.64;98204.34;5055270;28;20693;-53
2022/09/14 07:53:05;;;;;;;3.13;1.90;;;;;;;21.94;49.95;98188.97;5055295;28;20555;-53
2022/09/14 07:55:31;;;;;;;1.67;1.58;;;;;;;22.07;49.63;98202.34;5055292;28;20207;-53
2022/09/14 07:57:56;;;;;;;2.55;1.95;;;;;;;22.18;49.83;98190.50;5055246;28;20177;-54
2022/09/14 08:00:22;;;;;;;2.00;1.90;;;;;;;22.32;49.19;98195.78;5054909;28;20177;-53
2022/09/14 08:02:52;;;;;;;1.88;1.77;;;;;;;22.40;49.36;98198.31;5054755;28;20219;-52
2022/09/14 08:05:18;;;;;;;2.97;2.08;;;;;;;22.49;49.79;98184.03;5054684;28;20312;-52
2022/09/14 08:07:44;;;;;;;1.98;1.88;;;;;;;22.54;49.61;98179.03;5054802;28;20209;-54
2022/09/14 08:10:09;;;;;;;2.75;2.20;;;;;;;22.73;48.96;98194.25;5055167;28;20197;-53
2022/09/14 08:12:34;;;;;;;2.88;2.15;;;;;;;22.67;48.70;98189.72;5054657;28;20551;-54
2022/09/14 08:15:00;;;;;;;3.47;2.05;;;;;;;22.80;48.87;98197.81;5054841;28;20211;-52
2022/09/14 08:17:25;;;;;;;4.93;2.85;;;;;;;22.88;48.06;98186.31;5054589;28;20177;-52
2022/09/14 08:19:51;;;;;;;4.13;2.20;;;;;;;22.93;48.21;98199.75;5054511;28;20173;-53
2022/09/14 08:22:17;;;;;;;2.22;2.03;;;;;;;22.95;47.92;98190.66;5054783;28;20178;-53
2022/09/14 08:24:42;;;;;;;2.53;1.58;;;;;;;22.90;47.86;98179.03;5054699;28;20169;-53
2022/09/14 08:27:09;;;;;;;1.85;1.75;;;;;;;23.03;47.59;98189.72;5054648;28;20731;-53
2022/09/14 08:29:35;;;;;;;2.65;1.58;;;;;;;22.97;47.78;98162.25;5054217;28;20591;-54
2022/09/14 08:32:00;;;;;;;2.17;2.00;;;;;;;23.24;47.61;98180.00;5054298;28;20173;-53
2022/09/14 08:34:26;;;;;;;4.38;2.20;;;;;;;23.34;48.08;98187.59;5054534;28;20169;-53
2022/09/14 08:36:51;;;;;;;2.30;2.10;;;;;;;23.42;48.36;98171.63;5054100;28;20208;-54
2022/09/14 08:39:17;;;;;;;3.65;1.98;;;;;;;23.56;47.93;98182.09;5054140;28;20173;-53
2022/09/14 08:41:42;;;;;;;2.25;2.08;;;;;;;23.68;47.68;98180.56;5054295;28;20173;-54
2022/09/14 08:44:22;;;;;;;2.60;2.00;;;;;;;23.79;47.15;98182.69;5054093;28;20173;-53
2022/09/14 08:46:50;;;;;;;6.70;2.20;;;;;;;23.84;47.01;98180.25;5054512;28;20154;-53
2022/09/14 08:49:25;;;;;;;1.77;1.67;;;;;;;23.96;46.63;98183.22;5053952;28;20284;-53
2022/09/14 08:51:51;;;;;;;2.25;2.15;;;;;;;23.98;46.82;98175.91;5053992;28;20203;-54
2022/09/14 08:54:17;;;;;;;2.90;2.70;;;;;;;23.98;47.09;98172.22;5054231;28;20201;-52
2022/09/14 08:56:47;;;;;;;2.50;2.30;;;;;;;24.04;47.49;98181.22;5054153;28;20169;-52
2022/09/14 08:59:27;;;;;;;4.30;2.20;;;;;;;24.03;45.89;98180.41;5053843;28;20654;-53
2022/09/14 09:02:16;;;;;;;2.17;1.90;;;;;;;23.95;45.57;98176.31;5054045;28;20187;-54
2022/09/14 09:04:55;;;;;;;4.75;2.15;;;;;;;24.05;45.15;98177.56;5053801;28;20708;-53
2022/09/14 09:07:41;;;;;;;7.45;3.30;;;;;;;24.03;45.26;98169.03;5053553;28;20204;-53
2022/09/14 09:10:11;;;;;;;5.88;2.25;;;;;;;24.12;45.50;98172.34;5053839;28;20335;-52
2022/09/14 09:13:18;;;;;;;3.53;2.00;;;;;;;24.32;44.71;98176.69;5053872;28;20176;-53
2022/09/14 09:15:48;;;;;;;4.43;2.40;;;;;;;24.32;43.99;98166.13;5051419;28;20215;-53
2022/09/14 09:18:30;;;;;;;6.72;2.22;;;;;;;24.37;44.05;98166.34;5053097;28;20636;-52
2022/09/14 09:21:09;;;;;;;6.00;2.25;;;;;;;24.48;43.66;98163.13;5053626;28;20158;-52
2022/09/14 09:23:36;;;;;;;3.92;2.35;;;;;;;24.53;43.82;98166.81;5053479;28;20160;-53
2022/09/14 09:26:29;;;;;;;2.97;2.42;;;;;;;24.52;43.19;98148.47;5053560;28;20179;-53
2022/09/14 09:29:00;;;;;;;5.80;2.42;;;;;;;24.68;42.38;98159.53;5053403;28;20161;-53
2022/09/14 09:31:38;;;;;;;2.53;2.00;;;;;;;24.71;41.77;98159.16;5053222;28;20248;-52
2022/09/14 09:34:05;;;;;;;3.30;2.30;;;;;;;24.77;42.36;98155.72;5053194;28;20210;-52
2022/09/14 09:36:42;;;;;;;5.32;2.30;;;;;;;24.84;42.31;98142.50;5053113;28;20242;-53
2022/09/14 09:39:08;;;;;;;3.97;2.50;;;;;;;24.93;42.58;98142.09;5053117;28;20240;-53
2022/09/14 09:42:11;;;;;;;4.43;2.13;;;;;;;24.99;41.62;98135.19;5053053;28;20220;-53
2022/09/14 09:44:56;;;;;;;5.10;2.33;;;;;;;24.99;40.32;98130.72;5052163;28;20185;-53
2022/09/14 09:47:27;;;;;;;4.70;2.08;;;;;;;25.05;40.60;98132.53;5052859;28;20244;-53
2022/09/14 09:50:02;;;;;;;3.78;2.08;;;;;;;25.05;40.80;98137.00;5052825;28;20208;-53
2022/09/14 09:52:29;;;;;;;4.82;2.42;;;;;;;25.22;40.71;98141.72;5053032;28;20235;-53
2022/09/14 09:54:56;;;;;;;4.43;2.38;;;;;;;25.30;40.01;98124.84;5052765;28;20189;-53
2022/09/14 09:57:29;;;;;;;6.47;2.40;;;;;;;25.39;40.02;98129.75;5052732;28;20672;-53
2022/09/14 10:00:23;;;;;;;5.00;2.13;;;;;;;25.49;39.53;98122.16;5052967;28;20165;-53
2022/09/14 10:02:49;;;;;;;3.88;2.10;;;;;;;25.71;39.16;98126.22;5052941;28;20165;-53
2022/09/14 10:05:18;;;;;;;4.05;1.80;;;;;;;25.77;38.08;98124.59;5052430;28;20217;-53
2022/09/14 10:07:55;;;;;;;3.85;2.20;;;;;;;25.84;37.91;98120.06;5052490;28;20200;-53
2022/09/14 10:10:38;;;;;;;2.17;1.50;;;;;;;25.93;37.39;98124.16;5052660;28;20200;-53
2022/09/14 10:13:05;;;;;;;4.85;1.63;;;;;;;26.06;36.99;98130.22;5052416;28;20169;-53
2022/09/14 10:15:35;;;;;;;1.73;1.63;;;;;;;26.20;36.58;98123.88;5052489;28;20231;-54
2022/09/14 10:18:09;;;;;;;2.08;1.98;;;;;;;26.26;36.86;98119.56;5052598;28;20197;-53
2022/09/14 10:20:42;;;;;;;7.22;1.50;;;;;;;26.38;37.27;98124.00;5052296;28;20175;-53
2022/09/14 10:23:17;;;;;;;5.10;1.80;;;;;;;26.53;36.84;98121.06;5052376;28;20565;-53
2022/09/14 10:25:47;;;;;;;4.85;1.55;;;;;;;26.67;36.54;98122.63;5052359;28;20183;-53
2022/09/14 10:28:23;;;;;;;2.15;1.88;;;;;;;26.78;36.45;98122.78;5052728;28;20521;-53
2022/09/14 10:30:56;;;;;;;1.70;1.60;;;;;;;26.86;35.60;98116.38;5052409;28;20201;-53
2022/09/14 10:33:22;;;;;;;4.20;1.55;;;;;;;26.94;35.05;98124.91;5052125;28;20173;-53
2022/09/14 10:36:22;;;;;;;1.73;1.52;;;;;;;27.01;34.85;98120.34;5052110;28;20248;-53
2022/09/14 10:39:13;;;;;;;4.60;1.50;;;;;;;27.25;34.06;98116.97;5052401;28;20161;-53
2022/09/14 10:42:00;;;;;;;2.38;1.50;;;;;;;27.43;33.97;98121.50;5052352;28;20161;-53
2022/09/14 10:44:46;;;;;;;4.10;1.85;;;;;;;27.65;32.45;98118.19;5052258;28;20195;-53
2022/09/14 10:47:12;;;;;;;2.67;1.20;;;;;;;27.81;32.04;98115.00;5052287;28;20169;-53
2022/09/14 10:50:25;;;;;;;2.50;1.40;;;;;;;27.92;32.64;98103.63;5051923;28;20279;-53
2022/09/14 10:53:09;;;;;;;1.65;1.55;;;;;;;28.17;32.38;98101.69;5052096;28;20166;-53
2022/09/14 10:55:45;;;;;;;2.63;1.52;;;;;;;28.29;31.34;98101.75;5051889;28;20173;-53
2022/09/14 10:58:49;;;;;;;3.40;1.17;;;;;;;28.49;31.30;98105.81;5051929;28;20168;-53
2022/09/14 11:01:38;;;;;;;1.15;1.05;;;;;;;28.56;30.92;98103.88;5052384;28;20169;-53
2022/09/14 11:04:15;;;;;;;1.40;1.30;;;;;;;28.76;29.87;98101.75;5056155;28;20654;-53
2022/09/14 11:07:07;;;;;;;1.52;1.00;;;;;;;28.85;30.58;98089.72;5055770;28;20212;-53
2022/09/14 11:10:09;;;;;;;4.15;1.40;;;;;;;29.03;30.58;98096.88;5055999;28;20185;-53
2022/09/14 11:13:22;;;;;;;1.90;1.27;;;;;;;29.16;29.32;98112.66;5055719;28;20192;-54
2022/09/14 11:16:09;;;;;;;1.88;1.23;;;;;;;29.23;28.22;98100.84;5056048;28;20597;-54
2022/09/14 11:19:08;;;;;;;2.13;1.02;;;;;;;29.24;29.15;98088.31;5055739;28;20172;-54
2022/09/14 11:22:09;;;;;;;2.72;1.20;;;;;;;29.36;27.82;98100.63;5056261;28;20166;-54
2022/09/14 11:24:51;;;;;;;3.83;1.00;;;;;;;29.51;27.83;98100.94;5055892;28;20161;-54
2022/09/14 11:27:35;;;;;;;0.80;0.80;;;;;;;29.60;27.06;98088.09;5055539;28;20161;-54
2022/09/14 11:30:09;;;;;;;1.50;1.10;;;;;;;29.64;26.92;98105.28;5055656;28;20680;-54
2022/09/14 11:33:02;;;;;;;1.98;1.60;;;;;;;29.67;27.53;98094.94;5055794;28;20161;-54
2022/09/14 11:35:43;;;;;;;3.80;1.20;;;;;;;29.71;27.94;98096.13;5055397;28;20168;-54
2022/09/14 11:38:28;;;;;;;1.73;1.00;;;;;;;29.78;27.08;98086.13;5055389;28;20240;-54
2022/09/14 11:41:13;;;;;;;1.67;1.30;;;;;;;29.85;27.05;98086.81;5055498;28;20188;-54
2022/09/14 11:43:51;;;;;;;1.17;0.73;;;;;;;29.97;26.29;98084.94;5054410;28;20169;-54
2022/09/14 11:46:21;;;;;;;2.03;1.25;;;;;;;30.02;26.50;98070.91;5055214;28;20654;-54
2022/09/14 11:49:27;;;;;;;1.40;1.10;;;;;;;30.12;26.40;98069.25;5055391;28;20185;-54
2022/09/14 11:52:01;;;;;;;1.77;0.90;;;;;;;30.16;27.25;98062.41;5053201;28;20303;-54
2022/09/14 11:54:27;;;;;;;1.17;0.90;;;;;;;30.06;27.08;98048.00;5053602;28;20611;-54